Time;durP1;ratioP1;P1;durP2;ratioP2;P2;SDS_P1;SDS_P2;PMS_P1;PMS_P2;Temp;Humidity;BMP_temperature;BMP_pressure;BME280_temperature;BME280_humidity;BME280_pressure;Samples;Min_cycle;Max_cycle;Signal;HPM_P1;HPM_P2
2022/08/01 00:01:08;;;;;;;9.88;4.00;;;22.50;99.90;;;;;;5168297;28;20030;-72
2022/08/01 00:03:39;;;;;;;9.15;4.07;;;22.50;99.90;;;;;;5168341;28;20030;-73
2022/08/01 00:06:10;;;;;;;8.90;3.92;;;22.50;99.90;;;;;;5167165;28;20059;-72
2022/08/01 00:08:41;;;;;;;4.82;3.38;;;22.50;99.90;;;;;;5168318;28;20116;-72
2022/08/01 00:11:12;;;;;;;4.78;3.20;;;22.50;99.90;;;;;;5168108;28;20034;-78
2022/08/01 00:13:42;;;;;;;5.88;3.53;;;22.30;99.90;;;;;;5168146;28;20081;-71
2022/08/01 00:16:15;;;;;;;5.57;3.28;;;22.30;99.90;;;;;;5168231;28;20018;-71
2022/08/01 00:18:46;;;;;;;6.80;3.88;;;22.20;99.90;;;;;;5168223;28;20029;-71
2022/08/01 00:21:17;;;;;;;7.25;4.15;;;22.10;99.90;;;;;;5167490;28;20046;-72
2022/08/01 00:23:48;;;;;;;7.57;4.05;;;22.20;99.90;;;;;;5167988;28;20034;-72
2022/08/01 00:26:20;;;;;;;5.88;4.35;;;22.00;99.90;;;;;;5166906;28;20073;-72
2022/08/01 00:28:50;;;;;;;5.75;3.33;;;22.20;99.90;;;;;;5167884;28;20101;-71
2022/08/01 00:31:21;;;;;;;7.93;4.00;;;22.20;99.90;;;;;;5167749;28;20113;-74
2022/08/01 00:33:52;;;;;;;6.72;3.90;;;22.20;99.90;;;;;;5167890;28;20027;-72
2022/08/01 00:36:23;;;;;;;7.03;3.90;;;22.20;99.90;;;;;;5167727;28;20135;-71
2022/08/01 00:38:54;;;;;;;6.93;4.00;;;22.00;99.90;;;;;;5167662;28;20109;-79
2022/08/01 00:41:25;;;;;;;6.55;4.00;;;21.90;99.90;;;;;;5167622;28;20030;-72
2022/08/01 00:43:55;;;;;;;6.07;3.83;;;22.00;99.90;;;;;;5167477;28;20023;-73
2022/08/01 00:46:26;;;;;;;8.10;3.97;;;22.00;99.90;;;;;;5167152;28;20058;-72
2022/08/01 00:48:57;;;;;;;6.28;3.92;;;22.00;99.90;;;;;;5167599;28;20026;-72
2022/08/01 00:51:28;;;;;;;7.38;4.07;;;22.00;99.90;;;;;;5167185;28;20078;-78
2022/08/01 00:54:00;;;;;;;5.30;4.32;;;22.00;99.90;;;;;;5166004;28;20116;-72
2022/08/01 00:56:31;;;;;;;5.95;4.70;;;22.00;99.90;;;;;;5167388;28;20030;-74
2022/08/01 00:59:03;;;;;;;5.00;4.25;;;22.10;99.90;;;;;;5166034;28;20174;-72
2022/08/01 01:01:34;;;;;;;6.72;3.63;;;22.20;99.90;;;;;;5167119;28;20359;-72
2022/08/01 01:04:05;;;;;;;6.70;4.28;;;22.00;99.90;;;;;;5167098;28;20046;-71
2022/08/01 01:07:05;;;;;;;5.10;3.70;;;21.90;99.90;;;;;;5166974;28;20018;-72
2022/08/01 01:09:50;;;;;;;5.18;4.10;;;22.00;99.90;;;;;;5166948;28;20034;-72
2022/08/01 01:12:21;;;;;;;5.22;4.00;;;22.00;99.90;;;;;;5165596;28;20128;-71
2022/08/01 01:15:24;;;;;;;7.68;3.85;;;22.10;99.90;;;;;;5166773;28;20105;-73
2022/08/01 01:18:11;;;;;;;5.22;4.18;;;22.20;99.90;;;;;;5155053;28;20058;-73
2022/08/01 01:20:57;;;;;;;6.18;3.83;;;21.80;99.90;;;;;;5166543;28;20057;-71
2022/08/01 01:23:54;;;;;;;7.40;4.38;;;21.80;99.90;;;;;;5166668;28;20026;-71
2022/08/01 01:26:49;;;;;;;6.38;4.55;;;21.90;99.90;;;;;;5166680;28;20030;-73
2022/08/01 01:29:42;;;;;;;6.72;4.32;;;21.70;99.90;;;;;;5166841;28;20023;-72
2022/08/01 01:32:33;;;;;;;4.80;4.10;;;21.90;99.90;;;;;;5165411;28;20520;-71
2022/08/01 01:35:29;;;;;;;6.00;4.00;;;21.80;99.90;;;;;;5166632;28;20101;-72
2022/08/01 01:38:05;;;;;;;5.15;3.92;;;21.70;99.90;;;;;;5159452;28;20045;-74
2022/08/01 01:40:37;;;;;;;6.85;4.35;;;21.80;99.90;;;;;;5165122;28;20030;-73
2022/08/01 01:43:11;;;;;;;4.68;3.95;;;21.90;99.90;;;;;;5166701;28;20768;-72
2022/08/01 01:45:45;;;;;;;5.38;3.70;;;21.80;99.90;;;;;;5166453;28;20034;-73
2022/08/01 01:48:22;;;;;;;4.85;4.15;;;21.90;99.90;;;;;;5166475;28;20014;-72
2022/08/01 01:50:56;;;;;;;5.68;4.40;;;21.70;99.90;;;;;;5166272;28;20046;-74
2022/08/01 01:53:29;;;;;;;5.97;4.22;;;21.70;99.90;;;;;;5166317;28;20027;-72
2022/08/01 01:56:02;;;;;;;5.25;4.10;;;21.60;99.90;;;;;;5166280;28;20106;-80
2022/08/01 01:58:35;;;;;;;5.72;4.60;;;21.50;99.90;;;;;;5166380;28;20065;-72
2022/08/01 02:01:07;;;;;;;5.43;4.07;;;21.50;99.90;;;;;;5166035;28;20348;-73
2022/08/01 02:03:41;;;;;;;7.78;4.43;;;21.50;99.90;;;;;;5166189;28;20142;-71
2022/08/01 02:06:18;;;;;;;5.10;3.92;;;21.60;99.90;;;;;;5167492;28;20022;-81
2022/08/01 02:08:55;;;;;;;4.68;4.25;;;21.70;99.90;;;;;;5167353;28;20022;-81
2022/08/01 02:11:38;;;;;;;5.03;4.50;;;21.70;99.90;;;;;;5167413;28;20389;-81
2022/08/01 02:14:13;;;;;;;4.15;3.75;;;21.70;99.90;;;;;;5166217;28;20054;-82
2022/08/01 02:16:48;;;;;;;5.35;4.53;;;21.50;99.90;;;;;;5165029;28;20030;-72
2022/08/01 02:19:19;;;;;;;5.93;4.53;;;21.60;99.90;;;;;;5165842;28;20034;-73
2022/08/01 02:22:13;;;;;;;5.00;4.50;;;21.20;99.90;;;;;;5163728;28;20054;-73
2022/08/01 02:24:47;;;;;;;5.30;4.40;;;21.40;99.90;;;;;;5166065;28;20030;-72
2022/08/01 02:27:24;;;;;;;5.80;4.40;;;21.20;99.90;;;;;;5164869;28;20034;-72
2022/08/01 02:30:01;;;;;;;5.22;4.18;;;21.10;99.90;;;;;;5164922;28;20033;-72
2022/08/01 02:32:38;;;;;;;8.32;4.10;;;20.90;99.90;;;;;;5165686;28;20120;-73
2022/08/01 02:35:17;;;;;;;4.90;4.40;;;21.00;99.90;;;;;;5165679;28;20486;-72
2022/08/01 02:37:49;;;;;;;5.28;4.53;;;20.90;99.90;;;;;;5165588;28;20038;-72
2022/08/01 02:40:20;;;;;;;5.63;4.80;;;20.70;99.90;;;;;;5164185;28;20062;-77
2022/08/01 02:42:54;;;;;;;6.20;4.85;;;20.70;99.90;;;;;;5165478;28;20371;-72
2022/08/01 02:45:27;;;;;;;8.90;5.07;;;20.80;99.90;;;;;;5165564;28;20381;-72
2022/08/01 02:48:13;;;;;;;6.93;4.45;;;20.70;99.90;;;;;;5164156;28;20084;-72
2022/08/01 02:50:47;;;;;;;7.70;5.25;;;20.80;99.90;;;;;;5165122;28;20047;-73
2022/08/01 02:53:21;;;;;;;5.50;4.53;;;20.80;99.90;;;;;;5165493;28;20038;-71
2022/08/01 02:55:53;;;;;;;5.68;4.38;;;20.60;99.90;;;;;;5163448;28;20026;-72
2022/08/01 02:58:26;;;;;;;6.35;5.13;;;20.60;99.90;;;;;;5165429;28;20034;-72
2022/08/01 03:00:58;;;;;;;6.20;4.65;;;20.50;99.90;;;;;;5165284;28;20030;-71
2022/08/01 03:03:30;;;;;;;6.30;5.22;;;20.50;99.90;;;;;;5165487;28;20030;-72
2022/08/01 03:06:03;;;;;;;5.35;4.40;;;20.60;99.90;;;;;;5164008;28;20045;-71
2022/08/01 03:08:36;;;;;;;8.15;4.88;;;20.60;99.90;;;;;;5165212;28;20034;-71
2022/08/01 03:11:08;;;;;;;5.00;4.35;;;20.40;99.90;;;;;;5160045;28;20129;-80
2022/08/01 03:13:42;;;;;;;5.55;4.70;;;20.60;99.90;;;;;;5145225;28;20019;-78
2022/08/01 03:16:14;;;;;;;6.22;4.70;;;20.30;99.90;;;;;;5146988;28;20037;-78
2022/08/01 03:18:46;;;;;;;6.72;4.63;;;20.50;99.90;;;;;;5153646;28;20030;-71
2022/08/01 03:21:20;;;;;;;6.63;5.00;;;20.50;99.90;;;;;;5164783;28;20078;-71
2022/08/01 03:23:56;;;;;;;7.38;4.80;;;20.60;99.90;;;;;;5164980;28;20023;-71
2022/08/01 03:26:30;;;;;;;5.68;4.13;;;20.70;99.90;;;;;;5159761;28;20022;-72
2022/08/01 03:29:06;;;;;;;6.30;5.00;;;20.50;99.90;;;;;;5163628;28;20101;-72
2022/08/01 03:31:42;;;;;;;6.00;5.30;;;20.60;99.90;;;;;;5164324;28;20049;-71
2022/08/01 03:34:13;;;;;;;6.30;5.20;;;20.70;99.90;;;;;;5167873;28;20096;-73
2022/08/01 03:36:56;;;;;;;4.85;4.28;;;20.70;99.90;;;;;;5168608;28;20058;-71
2022/08/01 03:39:36;;;;;;;6.68;5.05;;;20.70;99.90;;;;;;5168777;28;20022;-71
2022/08/01 03:42:18;;;;;;;5.20;4.50;;;20.40;99.90;;;;;;5168832;28;20072;-73
2022/08/01 03:45:02;;;;;;;6.43;5.18;;;20.40;99.90;;;;;;5168811;28;20034;-71
2022/08/01 03:47:35;;;;;;;5.70;4.95;;;20.40;99.90;;;;;;5168856;28;20033;-72
2022/08/01 03:50:08;;;;;;;6.72;5.40;;;20.60;99.90;;;;;;5168548;28;20061;-71
2022/08/01 03:52:43;;;;;;;6.55;5.47;;;20.70;99.90;;;;;;5167304;28;20034;-72
2022/08/01 03:55:16;;;;;;;5.68;5.07;;;20.70;99.90;;;;;;5168603;28;20105;-72
2022/08/01 03:57:48;;;;;;;7.18;5.35;;;20.90;99.90;;;;;;5168596;28;20045;-72
2022/08/01 04:00:19;;;;;;;6.50;5.15;;;20.90;99.90;;;;;;5168481;28;20026;-72
2022/08/01 04:02:51;;;;;;;6.10;5.10;;;20.80;99.90;;;;;;5168449;28;20022;-71
2022/08/01 04:05:22;;;;;;;6.70;5.45;;;20.90;99.90;;;;;;5168579;28;20201;-72
2022/08/01 04:07:55;;;;;;;6.35;5.13;;;21.10;99.90;;;;;;5168427;28;20474;-72
2022/08/01 04:10:26;;;;;;;8.63;5.25;;;21.00;99.90;;;;;;5166836;28;20046;-72
2022/08/01 04:12:57;;;;;;;5.75;5.00;;;21.10;99.90;;;;;;5167150;28;20030;-71
2022/08/01 04:15:28;;;;;;;5.60;4.88;;;21.30;99.90;;;;;;5168284;28;20022;-73
2022/08/01 04:17:59;;;;;;;6.25;4.28;;;21.20;99.90;;;;;;5166925;28;20030;-72
2022/08/01 04:20:30;;;;;;;6.18;4.95;;;21.20;99.90;;;;;;5167955;28;20077;-75
2022/08/01 04:23:01;;;;;;;6.45;4.57;;;21.20;99.90;;;;;;5167933;28;20176;-71
2022/08/01 04:25:34;;;;;;;5.28;4.50;;;21.50;99.90;;;;;;5168010;28;20022;-71
2022/08/01 04:28:08;;;;;;;5.03;4.45;;;21.60;99.90;;;;;;5168206;28;20096;-72
2022/08/01 04:30:40;;;;;;;6.50;4.93;;;21.60;99.90;;;;;;5166752;28;20046;-71
2022/08/01 04:33:15;;;;;;;5.95;4.65;;;21.60;99.90;;;;;;5167905;28;20022;-71
2022/08/01 04:35:48;;;;;;;4.78;4.10;;;21.80;99.90;;;;;;5167989;28;20030;-71
2022/08/01 04:38:22;;;;;;;6.10;4.80;;;22.00;99.90;;;;;;5167877;28;20100;-71
2022/08/01 04:40:54;;;;;;;10.57;4.85;;;21.70;99.90;;;;;;5167687;28;20022;-72
2022/08/01 04:43:25;;;;;;;5.80;4.40;;;22.20;99.90;;;;;;5167381;28;20034;-72
2022/08/01 04:45:58;;;;;;;12.20;5.45;;;22.30;99.90;;;;;;5166516;28;20037;-71
2022/08/01 04:48:31;;;;;;;6.78;4.75;;;22.00;99.90;;;;;;5167603;28;20102;-73
2022/08/01 04:51:02;;;;;;;11.93;5.47;;;22.30;99.90;;;;;;5167353;28;20042;-72
2022/08/01 04:53:33;;;;;;;7.32;4.55;;;22.20;99.90;;;;;;5167555;28;20484;-72
2022/08/01 04:56:05;;;;;;;9.65;4.88;;;22.30;99.90;;;;;;5167497;28;20102;-71
2022/08/01 04:58:36;;;;;;;7.47;4.85;;;22.40;99.90;;;;;;5166332;28;20030;-72
2022/08/01 05:01:08;;;;;;;5.55;4.65;;;22.40;99.90;;;;;;5167431;28;20029;-72
2022/08/01 05:03:39;;;;;;;8.38;4.72;;;22.40;99.90;;;;;;5167517;28;20030;-72
2022/08/01 05:06:10;;;;;;;12.48;4.47;;;22.60;99.90;;;;;;5167494;28;20423;-71
2022/08/01 05:08:41;;;;;;;14.27;4.32;;;22.90;99.90;;;;;;5166003;28;20085;-71
2022/08/01 05:11:12;;;;;;;9.73;4.22;;;23.20;99.90;;;;;;5167241;28;20045;-71
2022/08/01 05:13:42;;;;;;;5.75;3.60;;;23.60;99.90;;;;;;5165665;28;20026;-74
2022/08/01 05:16:13;;;;;;;7.97;3.25;;;23.80;99.90;;;;;;5167317;28;20045;-72
2022/08/01 05:18:44;;;;;;;17.25;3.63;;;24.20;99.90;;;;;;5167238;28;20026;-72
2022/08/01 05:21:15;;;;;;;8.95;2.97;;;24.20;99.90;;;;;;5166550;28;20046;-71
2022/08/01 05:23:48;;;;;;;7.13;2.58;;;24.30;99.90;;;;;;5167183;28;20022;-72
2022/08/01 05:26:19;;;;;;;10.00;3.22;;;24.40;99.90;;;;;;5167106;28;20053;-73
2022/08/01 05:28:50;;;;;;;43.13;3.67;;;24.50;99.90;;;;;;5165603;28;20022;-71
2022/08/01 05:31:21;;;;;;;3.45;1.98;;;24.40;99.90;;;;;;5166741;28;20351;-72
2022/08/01 05:33:52;;;;;;;20.10;2.58;;;24.50;99.90;;;;;;5166870;28;20027;-72
2022/08/01 05:36:23;;;;;;;5.65;2.35;;;24.60;99.90;;;;;;5166994;28;20764;-73
2022/08/01 05:38:53;;;;;;;8.43;1.80;;;24.80;99.90;;;;;;5166877;28;20061;-75
2022/08/01 05:41:24;;;;;;;2.47;1.80;;;24.70;99.90;;;;;;5166287;28;20434;-71
2022/08/01 05:43:55;;;;;;;1.80;1.52;;;24.80;99.90;;;;;;5166475;28;20051;-72
2022/08/01 05:46:26;;;;;;;1.67;1.13;;;24.90;99.90;;;;;;5166550;28;20101;-72
2022/08/01 05:48:58;;;;;;;1.63;1.15;;;24.90;99.90;;;;;;5166305;28;20037;-76
2022/08/01 05:51:29;;;;;;;1.75;1.30;;;25.10;99.90;;;;;;5164910;28;20125;-72
2022/08/01 05:54:00;;;;;;;1.52;1.10;;;25.00;99.90;;;;;;5166662;28;20049;-72
2022/08/01 05:56:31;;;;;;;1.48;1.38;;;25.40;99.90;;;;;;5165827;28;20393;-71
2022/08/01 05:59:03;;;;;;;2.40;1.38;;;25.30;99.90;;;;;;5166307;28;20085;-72
2022/08/01 06:01:33;;;;;;;3.05;1.90;;;25.60;99.90;;;;;;5166272;28;20045;-72
2022/08/01 06:04:04;;;;;;;2.00;1.13;;;25.60;99.90;;;;;;5166000;28;20030;-72
2022/08/01 06:06:35;;;;;;;1.90;1.20;;;25.30;99.90;;;;;;5164950;28;20038;-71
2022/08/01 06:09:06;;;;;;;1.17;0.90;;;25.50;99.90;;;;;;5165026;28;20120;-71
2022/08/01 06:11:37;;;;;;;1.38;1.15;;;25.70;99.90;;;;;;5166053;28;20045;-72
2022/08/01 06:14:08;;;;;;;1.08;0.73;;;25.60;99.90;;;;;;5165886;28;20022;-74
2022/08/01 06:16:39;;;;;;;1.60;1.30;;;25.60;99.90;;;;;;5165981;28;20378;-78
2022/08/01 06:19:09;;;;;;;2.47;1.35;;;25.90;99.90;;;;;;5166024;28;20038;-73
2022/08/01 06:21:40;;;;;;;1.33;0.70;;;25.70;99.90;;;;;;5165158;28;20078;-72
2022/08/01 06:24:11;;;;;;;1.95;1.10;;;25.90;99.90;;;;;;5166115;28;20034;-72
2022/08/01 06:26:42;;;;;;;1.70;1.20;;;26.00;99.90;;;;;;5165801;28;20034;-72
2022/08/01 06:29:13;;;;;;;1.75;0.95;;;26.00;99.90;;;;;;5164028;28;20030;-72
2022/08/01 06:31:44;;;;;;;1.10;0.82;;;26.30;99.90;;;;;;5165567;28;20045;-72
2022/08/01 06:34:15;;;;;;;1.10;0.98;;;26.10;99.90;;;;;;5165642;28;20022;-73
2022/08/01 06:36:46;;;;;;;0.80;0.65;;;26.10;99.90;;;;;;5165701;28;20037;-74
2022/08/01 06:39:16;;;;;;;1.50;0.88;;;26.10;99.90;;;;;;5165479;28;20022;-72
2022/08/01 06:41:47;;;;;;;0.70;0.50;;;26.10;99.90;;;;;;5165629;28;20449;-72
2022/08/01 06:44:18;;;;;;;0.85;0.80;;;26.40;99.90;;;;;;5164279;28;20041;-72
2022/08/01 06:46:49;;;;;;;2.35;0.63;;;26.60;99.90;;;;;;5165421;28;20559;-72
2022/08/01 06:49:20;;;;;;;1.60;0.77;;;26.60;99.90;;;;;;5164130;28;20031;-72
2022/08/01 06:51:51;;;;;;;1.02;0.80;;;26.50;99.90;;;;;;5165373;28;20073;-72
2022/08/01 06:54:22;;;;;;;1.67;0.90;;;26.50;99.90;;;;;;5165360;28;20490;-72
2022/08/01 06:56:52;;;;;;;1.95;0.88;;;26.50;99.90;;;;;;5165244;28;20379;-75
2022/08/01 06:59:23;;;;;;;1.70;0.90;;;26.80;99.90;;;;;;5165352;28;20375;-74
2022/08/01 07:01:54;;;;;;;0.90;0.70;;;27.10;99.90;;;;;;5165274;28;20033;-72
2022/08/01 07:04:25;;;;;;;1.27;0.90;;;26.80;99.90;;;;;;5165286;28;20027;-72
2022/08/01 07:06:56;;;;;;;1.10;0.75;;;26.90;99.90;;;;;;5165394;28;20061;-72
2022/08/01 07:09:27;;;;;;;1.40;0.77;;;27.10;99.90;;;;;;5169638;28;20018;-71
2022/08/01 07:11:58;;;;;;;1.25;0.90;;;27.30;99.90;;;;;;5169366;28;20096;-73
2022/08/01 07:14:29;;;;;;;0.85;0.65;;;27.20;99.90;;;;;;5169366;28;20026;-72
2022/08/01 07:17:00;;;;;;;1.02;0.60;;;27.00;99.90;;;;;;5168207;28;20032;-72
2022/08/01 07:19:31;;;;;;;1.13;0.82;;;26.90;99.90;;;;;;5169263;28;20034;-72
2022/08/01 07:22:02;;;;;;;1.60;0.73;;;27.20;99.90;;;;;;5168811;28;20066;-73
2022/08/01 07:24:33;;;;;;;1.13;0.82;;;27.40;99.90;;;;;;5169243;28;20054;-72
2022/08/01 07:27:04;;;;;;;1.98;0.80;;;27.20;99.90;;;;;;5167787;28;20022;-72
2022/08/01 07:29:34;;;;;;;0.70;0.52;;;27.40;99.90;;;;;;5169012;28;20421;-72
2022/08/01 07:32:05;;;;;;;1.00;0.73;;;27.60;99.90;;;;;;5168976;28;20120;-72
2022/08/01 07:34:36;;;;;;;1.38;0.73;;;27.60;99.90;;;;;;5168912;28;20033;-72
2022/08/01 07:37:07;;;;;;;1.67;1.17;;;27.40;99.90;;;;;;5169097;28;20026;-72
2022/08/01 07:39:38;;;;;;;2.28;1.10;;;26.70;99.90;;;;;;5168888;28;20022;-72
2022/08/01 07:42:09;;;;;;;1.73;0.90;;;26.70;99.90;;;;;;5168809;28;20555;-72
2022/08/01 07:44:40;;;;;;;0.88;0.60;;;26.90;99.90;;;;;;5168735;28;20474;-72
2022/08/01 07:47:11;;;;;;;1.02;0.80;;;27.00;99.90;;;;;;5168851;28;20027;-78
2022/08/01 07:49:42;;;;;;;1.05;0.63;;;27.40;99.90;;;;;;5168643;28;20022;-72
2022/08/01 07:52:12;;;;;;;4.22;0.60;;;27.20;99.90;;;;;;5168440;28;20052;-73
2022/08/01 07:54:43;;;;;;;0.82;0.73;;;27.60;99.90;;;;;;5168532;28;20030;-73
2022/08/01 07:57:14;;;;;;;0.80;0.60;;;27.60;99.90;;;;;;5168568;28;20096;-73
2022/08/01 07:59:45;;;;;;;1.20;0.73;;;28.00;99.90;;;;;;5168394;28;20037;-72
2022/08/01 08:02:16;;;;;;;0.90;0.63;;;28.00;99.90;;;;;;5168466;28;20054;-72
2022/08/01 08:04:47;;;;;;;1.30;0.77;;;28.00;99.90;;;;;;5168487;28;20038;-72
2022/08/01 08:07:18;;;;;;;0.75;0.60;;;27.80;99.90;;;;;;5168263;28;20022;-71
2022/08/01 08:09:48;;;;;;;0.77;0.55;;;28.10;99.90;;;;;;5168194;28;20041;-77
2022/08/01 08:12:19;;;;;;;0.73;0.50;;;28.30;99.90;;;;;;5168303;28;20776;-72
2022/08/01 08:14:50;;;;;;;1.33;0.52;;;28.40;99.90;;;;;;5168097;28;20030;-72
2022/08/01 08:17:21;;;;;;;0.68;0.50;;;28.10;99.90;;;;;;5168083;28;20023;-72
2022/08/01 08:19:52;;;;;;;1.05;0.63;;;28.00;99.90;;;;;;5167300;28;20026;-72
2022/08/01 08:22:23;;;;;;;1.67;0.63;;;28.30;99.90;;;;;;5167840;28;20491;-72
2022/08/01 08:24:53;;;;;;;1.63;0.70;;;28.30;99.90;;;;;;5168117;28;20106;-72
2022/08/01 08:27:24;;;;;;;1.48;0.98;;;28.20;99.90;;;;;;5166909;28;20035;-72
2022/08/01 08:29:55;;;;;;;4.63;1.73;;;28.60;99.90;;;;;;5167852;28;20037;-74
2022/08/01 08:32:26;;;;;;;3.60;0.95;;;28.80;99.90;;;;;;5167821;28;20121;-73
2022/08/01 08:34:57;;;;;;;1.02;0.80;;;28.60;99.90;;;;;;5167689;28;20487;-72
2022/08/01 08:37:28;;;;;;;2.35;1.20;;;28.70;99.90;;;;;;5167926;28;20398;-76
2022/08/01 08:39:59;;;;;;;2.58;1.23;;;28.50;99.90;;;;;;5167726;28;20109;-71
2022/08/01 08:42:30;;;;;;;2.35;0.90;;;28.50;99.90;;;;;;5167702;28;20034;-72
2022/08/01 08:45:00;;;;;;;0.68;0.60;;;28.10;99.90;;;;;;5167597;28;20034;-72
2022/08/01 08:47:33;;;;;;;0.63;0.60;;;28.40;99.90;;;;;;5167562;28;20037;-72
2022/08/01 08:50:05;;;;;;;2.08;0.75;;;28.80;99.90;;;;;;5167229;28;20023;-72
2022/08/01 08:52:39;;;;;;;0.95;0.60;;;29.10;99.90;;;;;;5167591;28;20062;-72
2022/08/01 08:55:11;;;;;;;0.98;0.50;;;29.00;99.90;;;;;;5167431;28;20022;-72
2022/08/01 08:57:44;;;;;;;0.55;0.55;;;28.80;99.90;;;;;;5167297;28;20069;-72
2022/08/01 09:00:16;;;;;;;1.33;0.70;;;29.30;99.90;;;;;;5167541;28;20483;-72
2022/08/01 09:02:55;;;;;;;1.27;0.45;;;28.80;99.90;;;;;;5167202;28;20410;-78
2022/08/01 09:05:26;;;;;;;0.47;0.40;;;29.50;99.90;;;;;;5167180;28;20033;-73
2022/08/01 09:07:57;;;;;;;2.55;0.70;;;29.20;99.90;;;;;;5167171;28;20037;-72
2022/08/01 09:10:28;;;;;;;0.57;0.50;;;28.90;99.90;;;;;;5166910;28;20026;-72
2022/08/01 09:13:06;;;;;;;0.75;0.60;;;29.10;99.90;;;;;;5167185;28;20026;-72
2022/08/01 09:15:39;;;;;;;1.08;0.70;;;29.00;99.90;;;;;;5166961;28;20018;-77
2022/08/01 09:18:32;;;;;;;0.73;0.60;;;29.20;99.90;;;;;;5166904;28;20478;-72
2022/08/01 09:21:09;;;;;;;0.80;0.57;;;29.70;99.90;;;;;;5166557;28;20050;-72
2022/08/01 09:23:44;;;;;;;0.93;0.60;;;29.00;99.90;;;;;;5166935;28;20026;-72
2022/08/01 09:26:35;;;;;;;0.60;0.50;;;29.10;99.90;;;;;;5166680;28;20034;-72
2022/08/01 09:29:07;;;;;;;0.85;0.65;;;29.40;99.90;;;;;;5166864;28;20026;-71
2022/08/01 09:31:43;;;;;;;0.70;0.60;;;29.70;99.90;;;;;;5165497;28;20049;-72
2022/08/01 09:34:22;;;;;;;1.05;0.60;;;29.50;99.90;;;;;;5165297;28;20023;-72
2022/08/01 09:36:58;;;;;;;0.70;0.65;;;29.20;99.90;;;;;;5166837;28;20058;-72
2022/08/01 09:39:37;;;;;;;1.95;0.93;;;29.40;99.90;;;;;;5166361;28;20061;-72
2022/08/01 09:42:25;;;;;;;0.93;0.47;;;28.80;99.90;;;;;;5166646;28;20022;-72
2022/08/01 09:44:56;;;;;;;1.33;0.85;;;29.10;99.90;;;;;;5166713;28;20470;-73
2022/08/01 09:47:40;;;;;;;1.20;0.90;;;29.10;99.90;;;;;;5166449;28;20037;-72
2022/08/01 09:50:10;;;;;;;1.08;0.90;;;29.00;99.90;;;;;;5166352;28;20422;-72
2022/08/01 09:52:52;;;;;;;1.20;0.80;;;28.60;99.90;;;;;;5166297;28;20045;-72
2022/08/01 09:55:23;;;;;;;1.15;0.82;;;29.40;99.90;;;;;;5166404;28;20367;-71
2022/08/01 09:57:56;;;;;;;0.60;0.60;;;29.60;99.90;;;;;;5166221;28;20024;-72
2022/08/01 10:00:27;;;;;;;1.00;0.75;;;29.60;99.90;;;;;;5166182;28;20390;-71
2022/08/01 10:02:58;;;;;;;0.70;0.60;;;30.10;99.90;;;;;;5166132;28;20033;-74
2022/08/01 10:05:31;;;;;;;1.17;0.57;;;29.00;99.90;;;;;;5166082;28;20088;-72
2022/08/01 10:08:04;;;;;;;1.25;0.60;;;29.70;99.90;;;;;;5165902;28;20029;-72
2022/08/01 10:10:35;;;;;;;0.75;0.70;;;29.70;99.90;;;;;;5165975;28;20061;-71
2022/08/01 10:13:08;;;;;;;1.00;0.77;;;29.80;99.90;;;;;;5165893;28;20073;-77
2022/08/01 10:15:40;;;;;;;0.70;0.65;;;29.80;99.90;;;;;;5165894;28;20027;-72
2022/08/01 10:18:11;;;;;;;0.93;0.60;;;30.00;99.90;;;;;;5164518;28;20027;-72
2022/08/01 10:20:42;;;;;;;0.95;0.60;;;29.90;99.90;;;;;;5165409;28;20116;-72
2022/08/01 10:23:14;;;;;;;1.25;0.80;;;30.00;99.90;;;;;;5165998;28;20038;-72
2022/08/01 10:25:45;;;;;;;0.65;0.57;;;29.80;99.90;;;;;;5165872;28;20062;-72
2022/08/01 10:28:18;;;;;;;0.82;0.60;;;29.20;99.90;;;;;;5165580;28;20018;-72
2022/08/01 10:30:50;;;;;;;1.50;0.80;;;30.30;99.90;;;;;;5165539;28;20058;-72
2022/08/01 10:33:24;;;;;;;1.92;0.70;;;30.80;99.90;;;;;;5165729;28;20026;-73
2022/08/01 10:35:55;;;;;;;0.88;0.57;;;30.00;99.90;;;;;;5165539;28;20027;-80
2022/08/01 10:38:28;;;;;;;1.10;0.80;;;29.80;99.90;;;;;;5165383;28;20103;-75
2022/08/01 10:41:01;;;;;;;0.75;0.60;;;30.30;99.90;;;;;;5165257;28;20169;-72
2022/08/01 10:43:32;;;;;;;0.60;0.50;;;29.80;99.90;;;;;;5165833;28;20094;-72
2022/08/01 10:46:06;;;;;;;0.70;0.55;;;29.80;99.90;;;;;;5165539;28;20157;-72
2022/08/01 10:48:56;;;;;;;3.67;0.57;;;30.80;99.90;;;;;;5165436;28;20034;-72
2022/08/01 10:51:28;;;;;;;1.20;0.75;;;29.60;99.90;;;;;;5165724;28;20042;-72
2022/08/01 10:54:05;;;;;;;0.98;0.50;;;30.20;99.90;;;;;;5165370;28;20041;-72
2022/08/01 10:56:59;;;;;;;1.63;0.57;;;30.60;99.90;;;;;;5165454;28;20486;-72
2022/08/01 10:59:31;;;;;;;1.27;0.82;;;30.40;99.90;;;;;;5165457;28;20037;-72
2022/08/01 11:02:04;;;;;;;0.80;0.70;;;30.70;99.90;;;;;;5165255;28;20033;-72
2022/08/01 11:04:55;;;;;;;2.42;0.95;;;30.10;99.90;;;;;;5165327;28;20691;-72
2022/08/01 11:07:48;;;;;;;1.58;0.70;;;31.20;99.90;;;;;;5165291;28;20030;-72
2022/08/01 11:10:38;;;;;;;1.63;0.77;;;30.70;99.90;;;;;;5165341;28;20027;-73
2022/08/01 11:13:11;;;;;;;0.68;0.60;;;30.60;99.90;;;;;;5163985;28;20515;-73
2022/08/01 11:15:42;;;;;;;1.55;0.90;;;30.10;99.90;;;;;;5165228;28;20378;-72
2022/08/01 11:18:28;;;;;;;1.05;0.70;;;29.90;99.90;;;;;;5165056;28;20367;-72
2022/08/01 11:21:00;;;;;;;0.85;0.70;;;30.60;99.90;;;;;;5164809;28;20050;-72
2022/08/01 11:23:48;;;;;;;2.10;0.55;;;30.70;99.90;;;;;;5165334;28;20046;-72
2022/08/01 11:26:20;;;;;;;0.75;0.60;;;30.80;99.90;;;;;;5165255;28;20120;-72
2022/08/01 11:29:15;;;;;;;0.70;0.55;;;30.90;99.90;;;;;;5165016;28;20037;-76
2022/08/01 11:31:46;;;;;;;1.30;0.70;;;29.20;99.90;;;;;;5165153;28;20042;-72
2022/08/01 11:34:17;;;;;;;0.63;0.57;;;29.90;99.90;;;;;;5164949;28;20026;-72
2022/08/01 11:36:48;;;;;;;0.88;0.57;;;30.30;99.90;;;;;;5165018;28;20053;-72
2022/08/01 11:39:19;;;;;;;1.10;0.60;;;30.60;99.90;;;;;;5164903;28;20027;-72
2022/08/01 11:41:50;;;;;;;0.80;0.60;;;29.50;99.90;;;;;;5164909;28;20477;-71
2022/08/01 11:44:26;;;;;;;0.98;0.60;;;30.50;99.90;;;;;;5164864;28;20053;-72
2022/08/01 11:47:07;;;;;;;0.88;0.65;;;30.70;99.90;;;;;;5164827;28;20431;-71
2022/08/01 11:49:40;;;;;;;0.75;0.50;;;29.60;99.90;;;;;;5164750;28;20027;-72
2022/08/01 11:52:29;;;;;;;1.27;0.40;;;31.00;99.90;;;;;;5164728;28;20046;-72
2022/08/01 11:55:03;;;;;;;0.70;0.70;;;30.40;99.90;;;;;;5167727;28;20030;-72
2022/08/01 11:57:35;;;;;;;1.08;0.47;;;30.60;99.90;;;;;;5168664;28;20429;-72
2022/08/01 12:00:18;;;;;;;1.45;0.70;;;29.40;99.90;;;;;;5168438;28;20030;-72
2022/08/01 12:02:58;;;;;;;1.20;0.50;;;30.50;99.90;;;;;;5168523;28;20466;-77
2022/08/01 12:05:31;;;;;;;1.48;0.55;;;29.70;99.90;;;;;;5168504;28;20386;-72
2022/08/01 12:08:02;;;;;;;2.00;0.60;;;31.00;99.90;;;;;;5168223;28;20053;-72
2022/08/01 12:10:37;;;;;;;1.52;0.70;;;30.90;99.90;;;;;;5168044;28;20034;-72
2022/08/01 12:13:09;;;;;;;0.40;0.38;;;30.60;99.90;;;;;;5168266;28;20042;-71
2022/08/01 12:15:40;;;;;;;0.60;0.38;;;30.30;99.90;;;;;;5168201;28;20018;-71
2022/08/01 12:18:11;;;;;;;0.43;0.35;;;30.50;99.90;;;;;;5168232;28;20037;-71
2022/08/01 12:20:45;;;;;;;0.77;0.50;;;29.90;99.90;;;;;;5167667;28;20070;-71
2022/08/01 12:23:16;;;;;;;0.65;0.35;;;29.40;99.90;;;;;;5168270;28;20038;-71
2022/08/01 12:25:52;;;;;;;0.80;0.47;;;29.10;99.90;;;;;;5168165;28;20031;-72
2022/08/01 12:28:23;;;;;;;0.90;0.50;;;28.80;99.90;;;;;;5168029;28;20027;-71
2022/08/01 12:30:54;;;;;;;0.77;0.70;;;30.20;99.90;;;;;;5167882;28;20038;-72
2022/08/01 12:33:25;;;;;;;1.67;0.80;;;30.40;99.90;;;;;;5167933;28;20049;-73
2022/08/01 12:35:57;;;;;;;0.52;0.47;;;31.20;99.90;;;;;;5167946;28;20037;-77
2022/08/01 12:38:29;;;;;;;0.88;0.50;;;30.80;99.90;;;;;;5167558;28;20026;-73
2022/08/01 12:41:01;;;;;;;0.93;0.47;;;31.40;99.90;;;;;;5167756;28;20026;-71
2022/08/01 12:43:34;;;;;;;0.70;0.60;;;31.50;99.90;;;;;;5167901;28;20034;-76
2022/08/01 12:46:05;;;;;;;1.85;0.63;;;30.90;99.90;;;;;;5167756;28;20030;-74
2022/08/01 12:48:36;;;;;;;0.57;0.47;;;30.50;99.90;;;;;;5167460;28;20494;-72
2022/08/01 12:51:09;;;;;;;0.45;0.40;;;31.40;99.90;;;;;;5167382;28;20085;-72
2022/08/01 12:53:40;;;;;;;0.60;0.40;;;30.50;99.90;;;;;;5167376;28;20046;-72
2022/08/01 12:56:11;;;;;;;0.50;0.50;;;30.60;99.90;;;;;;5167682;28;20034;-72
2022/08/01 12:58:42;;;;;;;0.70;0.57;;;30.40;99.90;;;;;;5167394;28;20029;-72
2022/08/01 13:01:13;;;;;;;1.35;0.63;;;31.20;99.90;;;;;;5167260;28;20026;-72
2022/08/01 13:03:59;;;;;;;1.48;0.77;;;30.80;99.90;;;;;;5167047;28;20470;-77
2022/08/01 13:06:30;;;;;;;0.65;0.43;;;30.80;99.90;;;;;;5166028;28;20038;-76
2022/08/01 13:09:11;;;;;;;0.60;0.50;;;31.20;99.90;;;;;;5167127;28;20109;-73
2022/08/01 13:11:43;;;;;;;1.00;0.45;;;30.80;99.90;;;;;;5167198;28;20041;-72
2022/08/01 13:14:29;;;;;;;1.50;0.50;;;31.20;99.90;;;;;;5167052;28;20382;-72
2022/08/01 13:17:00;;;;;;;1.73;0.60;;;31.40;99.90;;;;;;5166818;28;20027;-71
2022/08/01 13:19:44;;;;;;;0.85;0.60;;;31.10;99.90;;;;;;5166705;28;20037;-71